Time;durP1;ratioP1;P1;durP2;ratioP2;P2;SDS_P1;SDS_P2;PMS_P1;PMS_P2;Temp;Humidity;BMP_temperature;BMP_pressure;BME280_temperature;BME280_humidity;BME280_pressure;Samples;Min_cycle;Max_cycle;Signal;HPM_P1;HPM_P2
2022/09/05 00:01:46;;;;;;;7.13;2.33;;;;;;;-147.53;100.00;57128.34;10242489;28;20051;-91
2022/09/05 00:07:23;;;;;;;5.50;2.10;;;;;;;-147.53;100.00;57128.34;10240584;28;20519;-91
2022/09/05 00:12:48;;;;;;;8.32;2.35;;;;;;;-147.53;100.00;57128.34;10230726;28;20389;-91
2022/09/05 00:18:13;;;;;;;9.52;2.50;;;;;;;-147.53;100.00;57128.34;10226604;28;20084;-91
2022/09/05 00:24:01;;;;;;;5.63;2.35;;;;;;;-147.53;100.00;57128.34;10232253;28;20098;-90
2022/09/05 00:29:42;;;;;;;4.65;2.22;;;;;;;-147.53;100.00;57128.34;10243536;28;20042;-90
2022/09/05 00:35:11;;;;;;;4.25;2.08;;;;;;;-147.53;100.00;57128.34;10256685;28;20053;-91
2022/09/05 00:40:40;;;;;;;6.50;2.22;;;;;;;-147.53;100.00;57128.34;10227021;29;20051;-90
2022/09/05 00:45:50;;;;;;;4.95;2.28;;;;;;;-147.53;100.00;57128.34;10239822;28;20047;-91
2022/09/05 00:51:26;;;;;;;4.40;2.33;;;;;;;-147.53;100.00;57128.34;10275244;28;20043;-90
2022/09/05 00:56:52;;;;;;;5.28;2.22;;;;;;;-147.53;100.00;57128.34;10254889;28;20527;-90
2022/09/05 01:02:23;;;;;;;4.18;2.38;;;;;;;-147.53;100.00;57128.34;10254573;28;20122;-91
2022/09/05 01:08:03;;;;;;;7.38;2.40;;;;;;;-147.53;100.00;57128.34;10259968;28;20043;-91
2022/09/05 01:13:20;;;;;;;7.68;2.42;;;;;;;-147.53;100.00;57128.34;10241880;28;20559;-91
2022/09/05 01:18:42;;;;;;;6.07;2.42;;;;;;;-147.53;100.00;57128.34;10228480;28;20054;-91
2022/09/05 01:23:53;;;;;;;8.25;2.47;;;;;;;-147.53;100.00;57128.34;10224693;28;20552;-91
2022/09/05 01:29:11;;;;;;;4.68;2.28;;;;;;;-147.53;100.00;57128.34;10240575;28;20078;-90
2022/09/05 01:34:20;;;;;;;5.75;2.53;;;;;;;-147.53;100.00;57128.34;10245880;28;20067;-91
2022/09/05 01:39:57;;;;;;;6.63;2.42;;;;;;;-147.53;100.00;57128.34;10228266;28;20035;-91
2022/09/05 01:45:49;;;;;;;6.40;2.42;;;;;;;-147.53;100.00;57128.34;10211493;28;20134;-91
2022/09/05 01:51:13;;;;;;;5.13;2.38;;;;;;;-147.53;100.00;57128.34;10231340;28;20130;-91
2022/09/05 01:56:38;;;;;;;7.13;2.60;;;;;;;-147.53;100.00;57128.34;10265614;28;20036;-91
2022/09/05 02:02:14;;;;;;;5.22;2.40;;;;;;;-147.53;100.00;57128.34;10242188;28;20043;-91
2022/09/05 02:07:49;;;;;;;5.65;2.80;;;;;;;-147.53;100.00;57128.34;10244293;28;20126;-90
2022/09/05 02:13:01;;;;;;;6.50;2.38;;;;;;;-147.53;100.00;57128.34;10259355;28;20058;-92
2022/09/05 02:18:05;;;;;;;;;;;;;;;-147.53;100.00;57128.34;10247693;28;20050;-91
2022/09/05 02:23:17;;;;;;;3.92;2.08;;;;;;;-147.53;100.00;57128.34;10240511;28;19998;-91
2022/09/05 02:29:06;;;;;;;4.93;2.30;;;;;;;-147.53;100.00;57128.34;10237229;28;20042;-91
2022/09/05 02:34:17;;;;;;;5.03;2.30;;;;;;;-147.53;100.00;57128.34;10235538;28;20050;-91
2022/09/05 02:39:45;;;;;;;5.35;2.50;;;;;;;-147.53;100.00;57128.34;10251006;28;20039;-90
2022/09/05 02:45:21;;;;;;;4.85;2.20;;;;;;;-147.53;100.00;57128.34;10244269;28;20137;-91
2022/09/05 02:51:01;;;;;;;5.03;2.53;;;;;;;-147.53;100.00;57128.34;10208626;28;20559;-91
2022/09/05 02:56:48;;;;;;;5.50;2.35;;;;;;;-147.53;100.00;57128.34;10238000;28;20516;-91
2022/09/05 03:02:10;;;;;;;7.07;2.40;;;;;;;-147.53;100.00;57128.34;10241014;28;20532;-92
2022/09/05 03:07:37;;;;;;;4.68;2.20;;;;;;;-147.53;100.00;57128.34;10240977;28;20051;-91
2022/09/05 03:12:57;;;;;;;5.70;2.50;;;;;;;-147.53;100.00;57128.34;10240868;28;20109;-91
2022/09/05 03:18:35;;;;;;;4.97;2.08;;;;;;;-147.53;100.00;57128.34;10240681;28;20099;-90
2022/09/05 03:23:56;;;;;;;5.13;2.25;;;;;;;-147.53;100.00;57128.34;10240798;28;20047;-90
2022/09/05 03:29:37;;;;;;;5.30;2.42;;;;;;;-147.53;100.00;57128.34;10253873;28;20062;-91
2022/09/05 03:35:15;;;;;;;4.47;2.20;;;;;;;-147.53;100.00;57128.34;10243699;28;20046;-90
2022/09/05 03:40:32;;;;;;;3.72;2.05;;;;;;;-147.53;100.00;57128.34;10248069;28;20081;-91
2022/09/05 03:45:52;;;;;;;4.88;2.72;;;;;;;-147.53;100.00;57128.34;10239929;28;20090;-91
2022/09/05 03:51:28;;;;;;;5.00;2.30;;;;;;;-147.53;100.00;57128.34;10244999;28;20128;-91
2022/09/05 03:57:17;;;;;;;5.18;2.38;;;;;;;-147.53;100.00;57128.34;10220163;28;20038;-91
2022/09/05 04:03:11;;;;;;;6.13;2.30;;;;;;;-147.53;100.00;57128.34;10235932;28;20039;-91
2022/09/05 04:09:13;;;;;;;4.78;2.20;;;;;;;-147.53;100.00;57128.34;10239366;28;20046;-93
2022/09/05 04:15:03;;;;;;;5.15;2.58;;;;;;;-147.53;100.00;57128.34;10237402;28;20032;-92
2022/09/05 04:20:29;;;;;;;8.70;2.60;;;;;;;-147.53;100.00;57128.34;10211125;28;20454;-91
2022/09/05 04:26:06;;;;;;;4.53;2.20;;;;;;;-147.53;100.00;57128.34;10235468;28;20051;-91
2022/09/05 04:31:41;;;;;;;4.55;2.38;;;;;;;-147.53;100.00;57128.34;10238407;28;20542;-92
2022/09/05 04:36:59;;;;;;;5.95;2.28;;;;;;;-147.53;100.00;57128.34;10221268;28;20740;-91
2022/09/05 04:42:03;;;;;;;5.43;2.65;;;;;;;-147.53;100.00;57128.34;10221570;28;20102;-91
2022/09/05 04:47:14;;;;;;;5.22;2.58;;;;;;;-147.53;100.00;57128.34;10240175;28;20070;-91
2022/09/05 04:52:58;;;;;;;5.47;2.63;;;;;;;-147.53;100.00;57128.34;10238393;28;20070;-92
2022/09/05 04:58:25;;;;;;;8.40;3.08;;;;;;;-147.53;100.00;57128.34;10237992;28;20047;-91
2022/09/05 05:04:14;;;;;;;5.00;2.30;;;;;;;-147.53;100.00;57128.34;10235388;28;20110;-92
2022/09/05 05:09:51;;;;;;;6.00;2.72;;;;;;;-147.53;100.00;57128.34;10251388;28;20074;-90
2022/09/05 05:15:17;;;;;;;7.95;2.35;;;;;;;-147.53;100.00;57128.34;10234038;28;20540;-90
2022/09/05 05:20:57;;;;;;;3.97;2.08;;;;;;;-147.53;100.00;57128.34;10244306;28;20131;-90
2022/09/05 05:26:02;;;;;;;5.68;2.33;;;;;;;-147.53;100.00;57128.34;10243040;28;20580;-92
2022/09/05 05:31:13;;;;;;;6.38;2.60;;;;;;;-147.53;100.00;57128.34;10256715;28;20558;-89
2022/09/05 05:36:38;;;;;;;5.97;2.55;;;;;;;-147.53;100.00;57128.34;10249049;28;20050;-89
2022/09/05 05:41:46;;;;;;;7.38;2.55;;;;;;;-147.53;100.00;57128.34;10247809;28;20051;-90
2022/09/05 05:47:01;;;;;;;4.28;2.40;;;;;;;-147.53;100.00;57128.34;10245976;28;20038;-91
2022/09/05 05:52:20;;;;;;;5.43;2.47;;;;;;;-147.53;100.00;57128.34;10244110;28;20042;-91
2022/09/05 05:58:06;;;;;;;5.95;2.58;;;;;;;-147.53;100.00;57128.34;10240635;28;20055;-92
2022/09/05 06:03:46;;;;;;;4.82;2.42;;;;;;;-147.53;100.00;57128.34;10213808;28;20047;-93
2022/09/05 06:09:14;;;;;;;5.45;2.25;;;;;;;-147.53;100.00;57128.34;10190727;28;20074;-91
2022/09/05 06:14:58;;;;;;;7.63;2.58;;;;;;;-147.53;100.00;57128.34;10218942;28;20054;-92
2022/09/05 06:20:42;;;;;;;6.40;2.78;;;;;;;-147.53;100.00;57128.34;10258378;28;20046;-92
2022/09/05 06:26:47;;;;;;;8.63;2.42;;;;;;;-147.53;100.00;57128.34;10251359;28;20632;-92
2022/09/05 06:32:13;;;;;;;6.13;2.58;;;;;;;-147.53;100.00;57128.34;10230692;28;20083;-91
2022/09/05 06:37:39;;;;;;;6.93;2.55;;;;;;;-147.53;100.00;57128.34;10222394;28;20528;-90
2022/09/05 06:43:06;;;;;;;9.38;2.30;;;;;;;-147.53;100.00;57128.34;10237938;28;20054;-91
2022/09/05 06:48:32;;;;;;;7.03;2.60;;;;;;;-147.53;100.00;57128.34;10234021;28;20054;-91
2022/09/05 06:54:29;;;;;;;6.70;2.78;;;;;;;-147.53;100.00;57128.34;10244139;28;20075;-91
2022/09/05 07:00:02;;;;;;;6.13;2.35;;;;;;;-147.53;100.00;57128.34;10178566;28;20079;-93
2022/09/05 07:05:27;;;;;;;10.80;2.67;;;;;;;-147.53;100.00;57128.34;10232850;28;20180;-92
2022/09/05 07:11:00;;;;;;;6.10;2.60;;;;;;;-147.53;100.00;57128.34;10240755;28;20057;-91
2022/09/05 07:16:26;;;;;;;8.57;3.20;;;;;;;-147.53;100.00;57128.34;10222714;28;20035;-91
2022/09/05 07:22:02;;;;;;;7.63;2.90;;;;;;;-147.53;100.00;57128.34;10239093;28;20412;-91
2022/09/05 07:27:08;;;;;;;5.55;2.60;;;;;;;-147.53;100.00;57128.34;10243741;28;20054;-90
2022/09/05 07:32:16;;;;;;;6.50;2.75;;;;;;;-147.53;100.00;57128.34;10244529;28;20047;-89
2022/09/05 07:37:37;;;;;;;5.28;2.75;;;;;;;-147.53;100.00;57128.34;10225207;28;20085;-87
2022/09/05 07:42:51;;;;;;;5.68;2.40;;;;;;;-147.53;100.00;57128.34;10264172;28;20051;-88
2022/09/05 07:48:19;;;;;;;7.32;2.65;;;;;;;-147.53;100.00;57128.34;10223730;28;20043;-89
2022/09/05 07:53:24;;;;;;;8.07;2.63;;;;;;;-147.53;100.00;57128.34;10226537;28;20057;-90
2022/09/05 07:58:50;;;;;;;5.70;2.58;;;;;;;-147.53;100.00;57128.34;10228291;28;20046;-89
2022/09/05 08:03:56;;;;;;;5.32;2.60;;;;;;;-147.53;100.00;57128.34;10241150;28;20162;-91
2022/09/05 08:09:18;;;;;;;5.80;2.50;;;;;;;-147.53;100.00;57128.34;10240522;28;20043;-90
2022/09/05 08:14:58;;;;;;;12.38;4.55;;;;;;;-147.53;100.00;57128.34;10249580;28;20031;-89
2022/09/05 08:19:59;;;;;;;8.70;3.00;;;;;;;-147.53;100.00;57128.34;10260914;28;20141;-90
2022/09/05 08:25:18;;;;;;;6.57;2.80;;;;;;;-147.53;100.00;57128.34;10204971;28;20043;-91
2022/09/05 08:30:20;;;;;;;7.00;3.00;;;;;;;-147.53;100.00;57128.34;10258833;28;20580;-91
2022/09/05 08:35:40;;;;;;;7.53;2.93;;;;;;;-147.53;100.00;57128.34;10233382;28;20410;-92
2022/09/05 08:40:48;;;;;;;5.38;2.22;;;;;;;-147.53;100.00;57128.34;10244249;28;20927;-90
2022/09/05 08:46:02;;;;;;;4.80;2.33;;;;;;;-147.53;100.00;57128.34;10234678;28;20047;-88
2022/09/05 08:51:39;;;;;;;4.72;2.40;;;;;;;-147.53;100.00;57128.34;10235097;28;20117;-90
2022/09/05 08:57:23;;;;;;;6.75;2.45;;;;;;;-147.53;100.00;57128.34;10247725;28;20058;-90
2022/09/05 09:02:30;;;;;;;5.38;2.67;;;;;;;-147.53;100.00;57128.34;10254827;28;20035;-89
2022/09/05 09:08:02;;;;;;;4.97;2.60;;;;;;;-147.53;100.00;57128.34;10248286;28;20058;-90
2022/09/05 09:13:23;;;;;;;6.53;2.55;;;;;;;-147.53;100.00;57128.34;10241945;28;20074;-89
2022/09/05 09:18:39;;;;;;;5.00;2.80;;;;;;;-147.53;100.00;57128.34;10239753;28;20141;-88
2022/09/05 09:23:50;;;;;;;5.18;2.72;;;;;;;-147.53;100.00;57128.34;10238554;28;21029;-92
2022/09/05 09:29:01;;;;;;;8.15;2.80;;;;;;;-147.53;100.00;57128.34;10230617;28;20041;-90
2022/09/05 09:34:17;;;;;;;6.85;2.22;;;;;;;-147.53;100.00;57128.34;10238105;28;20039;-90
2022/09/05 09:39:34;;;;;;;10.93;2.67;;;;;;;-147.53;100.00;57128.34;10224729;28;20051;-91
2022/09/05 09:45:25;;;;;;;11.27;2.60;;;;;;;-147.53;100.00;57128.34;10236906;28;20053;-89
2022/09/05 09:50:32;;;;;;;;;;;;;;;-147.53;100.00;57128.34;10232011;28;20032;-89
2022/09/05 09:55:54;;;;;;;4.43;2.40;;;;;;;-147.53;100.00;57128.34;10244030;28;19918;-91
2022/09/05 10:01:27;;;;;;;5.47;2.50;;;;;;;-147.53;100.00;57128.34;10226023;28;20405;-90
2022/09/05 10:07:05;;;;;;;6.10;2.28;;;;;;;-147.53;100.00;57128.34;10227832;28;20520;-91
2022/09/05 10:12:35;;;;;;;8.45;2.60;;;;;;;-147.53;100.00;57128.34;10235056;28;20137;-94
2022/09/05 10:18:00;;;;;;;8.52;2.83;;;;;;;-147.53;100.00;57128.34;10243601;28;20055;-91
2022/09/05 10:23:02;;;;;;;5.75;2.85;;;;;;;-147.53;100.00;57128.34;10203827;28;20095;-94
2022/09/05 10:28:13;;;;;;;8.10;2.30;;;;;;;-147.53;100.00;57128.34;10248708;28;20090;-90
2022/09/05 10:33:32;;;;;;;9.57;2.65;;;;;;;-147.53;100.00;57128.34;10224870;28;20059;-91
2022/09/05 10:39:09;;;;;;;8.98;2.63;;;;;;;-147.53;100.00;57128.34;10233934;28;20117;-91
2022/09/05 10:44:28;;;;;;;7.22;2.50;;;;;;;-147.53;100.00;57128.34;10232141;28;20142;-93
2022/09/05 10:49:35;;;;;;;7.90;2.83;;;;;;;-147.53;100.00;57128.34;10259362;28;20078;-90
2022/09/05 10:54:55;;;;;;;8.95;2.45;;;;;;;-147.53;100.00;57128.34;10251111;28;20460;-90
2022/09/05 11:00:53;;;;;;;5.22;2.42;;;;;;;-147.53;100.00;57128.34;10229089;28;20053;-90
2022/09/05 11:06:21;;;;;;;5.83;2.57;;;;;;;-147.53;100.00;57128.34;10254096;28;20035;-91
2022/09/05 11:11:26;;;;;;;9.27;2.80;;;;;;;-147.53;100.00;57128.34;10241033;28;20058;-90
2022/09/05 11:16:53;;;;;;;4.97;2.55;;;;;;;-147.53;100.00;57128.34;10244860;28;20051;-90
2022/09/05 11:22:06;;;;;;;5.18;2.40;;;;;;;-147.53;100.00;57128.34;10225679;28;20488;-88
2022/09/05 11:27:32;;;;;;;8.00;2.67;;;;;;;-147.53;100.00;57128.34;10222176;28;20146;-90
2022/09/05 11:32:56;;;;;;;7.40;2.40;;;;;;;-147.53;100.00;57128.34;10281147;28;20054;-89
2022/09/05 11:38:41;;;;;;;6.13;2.17;;;;;;;-147.53;100.00;57128.34;10280655;28;20040;-90
2022/09/05 11:44:18;;;;;;;12.02;2.35;;;;;;;-147.53;100.00;57128.34;10235788;28;20057;-89
2022/09/05 11:49:31;;;;;;;6.65;2.25;;;;;;;-147.53;100.00;57128.34;10240165;28;20127;-88
2022/09/05 11:55:08;;;;;;;5.28;2.00;;;;;;;-147.53;100.00;57128.34;10241414;28;20039;-88
2022/09/05 12:00:58;;;;;;;4.10;1.90;;;;;;;-147.53;100.00;57128.34;10235729;28;20039;-87
2022/09/05 12:06:38;;;;;;;7.03;2.28;;;;;;;-147.53;100.00;57128.34;10236057;28;20924;-87
2022/09/05 12:12:11;;;;;;;5.07;1.95;;;;;;;-147.53;100.00;57128.34;10241422;28;20509;-89
2022/09/05 12:17:59;;;;;;;5.35;2.15;;;;;;;-147.53;100.00;57128.34;10244611;28;20113;-87
2022/09/05 12:23:17;;;;;;;5.40;1.90;;;;;;;-147.53;100.00;57128.34;10249629;28;20038;-86
2022/09/05 12:28:45;;;;;;;4.23;1.90;;;;;;;-147.53;100.00;57128.34;10243580;28;20042;-86
2022/09/05 12:34:17;;;;;;;3.78;1.88;;;;;;;-147.53;100.00;57128.34;10236015;28;20404;-87
2022/09/05 12:39:51;;;;;;;8.27;1.80;;;;;;;-147.53;100.00;57128.34;10240654;28;20508;-91
2022/09/05 12:45:55;;;;;;;4.47;1.73;;;;;;;-147.53;100.00;57128.34;10223018;28;20055;-91
2022/09/05 12:51:09;;;;;;;5.40;1.97;;;;;;;-147.53;100.00;57128.34;10221740;28;20047;-89
2022/09/05 12:56:44;;;;;;;8.32;1.90;;;;;;;-147.53;100.00;57128.34;10258217;28;20452;-89
2022/09/05 13:02:12;;;;;;;13.55;1.98;;;;;;;-147.53;100.00;57128.34;10262704;28;20047;-89
2022/09/05 13:07:51;;;;;;;3.28;1.77;;;;;;;-147.53;100.00;57128.34;10242101;28;20075;-88
2022/09/05 13:12:57;;;;;;;5.40;1.90;;;;;;;-147.53;100.00;57128.34;10226197;28;20070;-89
2022/09/05 13:18:23;;;;;;;11.55;2.05;;;;;;;-147.53;100.00;57128.34;10225692;28;20043;-90
2022/09/05 13:23:30;;;;;;;7.18;2.20;;;;;;;-147.53;100.00;57128.34;10240473;28;20378;-91
2022/09/05 13:28:54;;;;;;;5.50;1.90;;;;;;;-147.53;100.00;57128.34;10225217;28;20065;-90
2022/09/05 13:34:23;;;;;;;5.72;1.88;;;;;;;-147.53;100.00;57128.34;10226224;28;20040;-89
2022/09/05 13:39:47;;;;;;;8.77;1.75;;;;;;;-147.53;100.00;57128.34;10231578;28;20069;-88
2022/09/05 13:44:54;;;;;;;2.97;1.40;;;;;;;-147.53;100.00;57128.34;10254315;28;20501;-88
2022/09/05 13:50:27;;;;;;;4.60;1.70;;;;;;;-147.53;100.00;57128.34;10243082;28;20072;-86
2022/09/05 13:55:32;;;;;;;5.63;1.85;;;;;;;-147.53;100.00;57128.34;10244219;28;20047;-87
2022/09/05 14:00:36;;;;;;;4.07;1.75;;;;;;;-147.53;100.00;57128.34;10245387;28;20051;-87
2022/09/05 14:05:41;;;;;;;4.13;1.50;;;;;;;-147.53;100.00;57128.34;10242134;28;20074;-87
2022/09/05 14:11:11;;;;;;;4.47;1.50;;;;;;;-147.53;100.00;57128.34;10243765;28;20051;-89
2022/09/05 14:16:21;;;;;;;4.72;1.80;;;;;;;-147.53;100.00;57128.34;10258778;28;20470;-87
2022/09/05 14:21:28;;;;;;;10.80;3.75;;;;;;;-147.53;100.00;57128.34;10235100;28;20039;-87
2022/09/05 14:26:50;;;;;;;4.20;1.70;;;;;;;-147.53;100.00;57128.34;10231254;28;20409;-88
2022/09/05 14:32:19;;;;;;;6.05;1.70;;;;;;;-147.53;100.00;57128.34;10232699;28;20098;-89
2022/09/05 14:38:03;;;;;;;8.13;1.85;;;;;;;-147.53;100.00;57128.34;10244778;28;20114;-91
2022/09/05 14:44:17;;;;;;;;;;;;;;;;;;;;;
2022/09/05 14:50:26;;;;;;;6.13;1.80;;;;;;;-147.53;100.00;57128.34;10218385;28;20182;-90
2022/09/05 14:55:31;;;;;;;10.85;2.58;;;;;;;-147.53;100.00;57128.34;10214377;28;20038;-92
2022/09/05 15:00:56;;;;;;;10.50;2.55;;;;;;;-147.53;100.00;57128.34;10254795;28;20039;-91
2022/09/05 15:06:29;;;;;;;7.60;2.50;;;;;;;-147.53;100.00;57128.34;10241601;28;20039;-92
2022/09/05 15:11:35;;;;;;;10.23;2.40;;;;;;;-147.53;100.00;57128.34;10226544;28;20043;-90
2022/09/05 15:17:03;;;;;;;5.38;2.38;;;;;;;-147.53;100.00;57128.34;10215647;28;20053;-92
2022/09/05 15:22:30;;;;;;;8.77;2.40;;;;;;;-147.53;100.00;57128.34;10217727;28;20053;-91
2022/09/05 15:27:35;;;;;;;11.35;2.70;;;;;;;-147.53;100.00;57128.34;10242863;28;20054;-88
2022/09/05 15:32:37;;;;;;;7.50;2.10;;;;;;;-147.53;100.00;57128.34;10244235;28;20531;-90
2022/09/05 15:37:43;;;;;;;11.43;2.38;;;;;;;-147.53;100.00;57128.34;10241497;28;20074;-90
2022/09/05 15:42:58;;;;;;;7.75;2.33;;;;;;;-147.53;100.00;57128.34;10221971;28;20123;-90
2022/09/05 15:48:21;;;;;;;10.55;2.60;;;;;;;-147.53;100.00;57128.34;10225817;28;20544;-90
2022/09/05 15:53:32;;;;;;;5.10;2.35;;;;;;;-147.53;100.00;57128.34;10243013;28;20122;-90
2022/09/05 15:58:40;;;;;;;9.07;2.53;;;;;;;-147.53;100.00;57128.34;10204916;28;20497;-90
2022/09/05 16:03:56;;;;;;;6.50;2.60;;;;;;;-147.53;100.00;57128.34;10229364;28;20445;-90
2022/09/05 16:09:40;;;;;;;8.90;2.60;;;;;;;-147.53;100.00;57128.34;10243007;28;20145;-91
2022/09/05 16:15:05;;;;;;;5.32;2.25;;;;;;;-147.53;100.00;57128.34;10230717;28;20035;-89
2022/09/05 16:20:41;;;;;;;5.88;2.45;;;;;;;-147.53;100.00;57128.34;10228101;28;20466;-89
2022/09/05 16:26:15;;;;;;;3.25;2.17;;;;;;;-147.53;100.00;57128.34;10223302;28;20500;-88
2022/09/05 16:31:47;;;;;;;5.72;2.30;;;;;;;-147.53;100.00;57128.34;10227403;28;20039;-89
2022/09/05 16:36:59;;;;;;;6.93;2.40;;;;;;;-147.53;100.00;57128.34;10239924;28;20047;-90
2022/09/05 16:42:29;;;;;;;11.85;2.47;;;;;;;-147.53;100.00;57128.34;10261774;28;20050;-90
2022/09/05 16:48:12;;;;;;;8.20;2.43;;;;;;;-147.53;100.00;57128.34;10240334;28;20054;-88
2022/09/05 16:53:40;;;;;;;12.68;2.90;;;;;;;-147.53;100.00;57128.34;10241462;28;20083;-88
2022/09/05 16:59:05;;;;;;;5.38;2.60;;;;;;;-147.53;100.00;57128.34;10242454;28;20097;-88
2022/09/05 17:04:27;;;;;;;8.25;3.08;;;;;;;-147.53;100.00;57128.34;10218130;28;20107;-88
2022/09/05 17:09:34;;;;;;;6.30;2.58;;;;;;;-147.53;100.00;57128.34;10224773;28;20543;-88
2022/09/05 17:14:43;;;;;;;5.07;2.88;;;;;;;-147.53;100.00;57128.34;10227557;28;20046;-89
2022/09/05 17:19:46;;;;;;;;;;;;;;;-147.53;100.00;57128.34;10230700;28;20050;-86
2022/09/05 17:25:19;;;;;;;6.80;2.75;;;;;;;-147.53;100.00;57128.34;10245592;28;20283;-90
2022/09/05 17:30:43;;;;;;;6.00;2.60;;;;;;;-147.53;100.00;57128.34;10242479;28;20045;-88
2022/09/05 17:36:08;;;;;;;9.07;2.60;;;;;;;-147.53;100.00;57128.34;10240304;28;20655;-88
2022/09/05 17:41:42;;;;;;;7.75;2.70;;;;;;;-147.53;100.00;57128.34;10234266;28;20035;-89
2022/09/05 17:47:00;;;;;;;7.57;3.72;;;;;;;-147.53;100.00;57128.34;10246181;28;20047;-87
2022/09/05 17:52:02;;;;;;;6.13;3.30;;;;;;;-147.53;100.00;57128.34;10234545;28;20038;-88
2022/09/05 17:57:26;;;;;;;7.32;2.88;;;;;;;-147.53;100.00;57128.34;10227129;28;20500;-90
2022/09/05 18:02:31;;;;;;;6.55;2.88;;;;;;;-147.53;100.00;57128.34;10215212;28;20129;-88
2022/09/05 18:07:50;;;;;;;10.38;2.80;;;;;;;-147.53;100.00;57128.34;10244047;28;20067;-87
2022/09/05 18:12:52;;;;;;;5.65;2.50;;;;;;;-147.53;100.00;57128.34;10257967;28;20043;-88
2022/09/05 18:18:33;;;;;;;6.63;2.90;;;;;;;-147.53;100.00;57128.34;10237916;28;20053;-87
2022/09/05 18:24:04;;;;;;;6.20;2.60;;;;;;;-147.53;100.00;57128.34;10246910;28;20453;-87
2022/09/05 18:29:33;;;;;;;5.60;2.45;;;;;;;-147.53;100.00;57128.34;10243874;28;20129;-88
2022/09/05 18:35:29;;;;;;;6.60;2.58;;;;;;;-147.53;100.00;57128.34;10248907;28;20035;-87
2022/09/05 18:40:57;;;;;;;7.90;2.95;;;;;;;-147.53;100.00;57128.34;10210105;28;20055;-89
2022/09/05 18:46:25;;;;;;;6.43;2.60;;;;;;;-147.53;100.00;57128.34;10226343;28;20040;-86
2022/09/05 18:51:33;;;;;;;7.38;2.70;;;;;;;-147.53;100.00;57128.34;10241965;28;20429;-87
2022/09/05 18:56:47;;;;;;;5.15;2.35;;;;;;;-147.53;100.00;57128.34;10224748;28;20075;-87
2022/09/05 19:02:29;;;;;;;8.68;3.10;;;;;;;-147.53;100.00;57128.34;10232785;28;20403;-89
2022/09/05 19:07:52;;;;;;;6.65;2.70;;;;;;;-147.53;100.00;57128.34;10245237;28;20047;-88
2022/09/05 19:13:22;;;;;;;8.98;2.58;;;;;;;-147.53;100.00;57128.34;10225943;28;20054;-87
2022/09/05 19:18:55;;;;;;;11.02;2.58;;;;;;;-147.53;100.00;57128.34;10225629;28;20090;-87
2022/09/05 19:24:03;;;;;;;10.35;2.80;;;;;;;-147.53;100.00;57128.34;10245110;28;20040;-88
2022/09/05 19:29:08;;;;;;;4.97;2.30;;;;;;;-147.53;100.00;57128.34;10204094;28;20071;-87
2022/09/05 19:34:32;;;;;;;7.38;2.40;;;;;;;-147.53;100.00;57128.34;10245483;28;20039;-87
2022/09/05 19:39:54;;;;;;;6.60;2.42;;;;;;;-147.53;100.00;57128.34;10217648;28;20051;-87
2022/09/05 19:45:28;;;;;;;7.60;2.50;;;;;;;-147.53;100.00;57128.34;10215637;28;20054;-87
2022/09/05 19:50:53;;;;;;;6.75;2.53;;;;;;;-147.53;100.00;57128.34;10237120;28;20449;-88
2022/09/05 19:55:54;;;;;;;11.13;2.97;;;;;;;-147.53;100.00;57128.34;10242088;28;20048;-86
2022/09/05 20:01:06;;;;;;;6.53;2.40;;;;;;;-147.53;100.00;57128.34;10214824;28;20047;-88
2022/09/05 20:06:35;;;;;;;7.05;3.25;;;;;;;-147.53;100.00;57128.34;10240127;28;20411;-88
2022/09/05 20:11:38;;;;;;;7.43;2.57;;;;;;;-147.53;100.00;57128.34;10234284;28;20043;-87
2022/09/05 20:16:46;;;;;;;;;;;;;;;-147.53;100.00;57128.34;10225560;28;20042;-88
2022/09/05 20:21:50;;;;;;;10.05;3.28;;;;;;;-147.53;100.00;57128.34;10224776;28;20477;-88
2022/09/05 20:26:58;;;;;;;4.70;2.40;;;;;;;-147.53;100.00;57128.34;10223205;28;20043;-88
2022/09/05 20:32:00;;;;;;;7.18;2.88;;;;;;;-147.53;100.00;57128.34;10248122;28;20058;-87
2022/09/05 20:37:07;;;;;;;11.88;2.50;;;;;;;-147.53;100.00;57128.34;10236032;28;20039;-87
2022/09/05 20:42:31;;;;;;;9.80;2.65;;;;;;;-147.53;100.00;57128.34;10235572;28;20031;-86
2022/09/05 20:47:52;;;;;;;7.28;2.67;;;;;;;-147.53;100.00;57128.34;10246698;28;20048;-87
2022/09/05 20:53:25;;;;;;;4.80;2.30;;;;;;;-147.53;100.00;57128.34;10254787;28;20050;-85
2022/09/05 20:58:49;;;;;;;6.30;2.58;;;;;;;-147.53;100.00;57128.34;10244240;28;20038;-88
2022/09/05 21:04:00;;;;;;;4.45;2.38;;;;;;;-147.53;100.00;57128.34;10251845;28;20122;-86
2022/09/05 21:09:10;;;;;;;9.98;2.50;;;;;;;-147.53;100.00;57128.34;10244102;28;20559;-87
2022/09/05 21:14:20;;;;;;;7.53;2.47;;;;;;;-147.53;100.00;57128.34;10244581;28;20351;-87
2022/09/05 21:19:26;;;;;;;9.13;2.40;;;;;;;-147.53;100.00;57128.34;10232494;28;20047;-88
2022/09/05 21:24:28;;;;;;;8.07;2.67;;;;;;;-147.53;100.00;57128.34;10247715;28;20050;-87
2022/09/05 21:29:32;;;;;;;7.43;2.50;;;;;;;-147.53;100.00;57128.34;10236539;28;20035;-87
2022/09/05 21:34:39;;;;;;;7.18;2.55;;;;;;;-147.53;100.00;57128.34;10232148;28;20527;-87
2022/09/05 21:39:49;;;;;;;5.05;2.30;;;;;;;-147.53;100.00;57128.34;10235450;28;20481;-88
2022/09/05 21:45:00;;;;;;;9.77;2.40;;;;;;;-147.53;100.00;57128.34;10251800;28;20062;-87
2022/09/05 21:50:28;;;;;;;6.43;2.33;;;;;;;-147.53;100.00;57128.34;10234341;28;20055;-87
2022/09/05 21:55:34;;;;;;;6.43;2.70;;;;;;;-147.53;100.00;57128.34;10225792;28;20650;-87
2022/09/05 22:00:55;;;;;;;6.43;2.70;;;;;;;-147.53;100.00;57128.34;10247418;28;20669;-87
2022/09/05 22:05:57;;;;;;;5.35;2.30;;;;;;;-147.53;100.00;57128.34;10230309;28;20098;-87
2022/09/05 22:11:07;;;;;;;7.95;2.30;;;;;;;-147.53;100.00;57128.34;10240869;28;20424;-88
2022/09/05 22:16:12;;;;;;;6.95;2.90;;;;;;;-147.53;100.00;57128.34;10243564;28;20042;-87
2022/09/05 22:21:20;;;;;;;4.88;2.47;;;;;;;-147.53;100.00;57128.34;10217825;28;20044;-87
2022/09/05 22:26:38;;;;;;;8.40;2.38;;;;;;;-147.53;100.00;57128.34;10249825;28;20097;-88
2022/09/05 22:32:00;;;;;;;6.78;2.58;;;;;;;-147.53;100.00;57128.34;10246277;28;20400;-88
2022/09/05 22:37:02;;;;;;;9.90;2.70;;;;;;;-147.53;100.00;57128.34;10239120;28;20143;-87
2022/09/05 22:42:06;;;;;;;7.18;2.60;;;;;;;-147.53;100.00;57128.34;10247118;28;20530;-87
2022/09/05 22:47:11;;;;;;;5.72;2.55;;;;;;;-147.53;100.00;57128.34;10247562;28;20389;-87
2022/09/05 22:52:13;;;;;;;7.43;2.95;;;;;;;-147.53;100.00;57128.34;10252260;28;20381;-88
2022/09/05 22:57:14;;;;;;;6.03;2.78;;;;;;;-147.53;100.00;57128.34;10242456;28;20043;-88
2022/09/05 23:02:16;;;;;;;6.38;2.80;;;;;;;-147.53;100.00;57128.34;10244504;28;20535;-87
2022/09/05 23:07:19;;;;;;;9.52;3.95;;;;;;;-147.53;100.00;57128.34;10231957;28;20069;-88
2022/09/05 23:12:21;;;;;;;12.13;3.05;;;;;;;-147.53;100.00;57128.34;10246623;28;20050;-88
2022/09/05 23:17:22;;;;;;;5.80;2.83;;;;;;;-147.53;100.00;57128.34;10239273;28;20459;-87
2022/09/05 23:22:24;;;;;;;8.57;2.90;;;;;;;-147.53;100.00;57128.34;10249732;28;20038;-87
2022/09/05 23:27:25;;;;;;;7.60;3.00;;;;;;;-147.53;100.00;57128.34;10244775;28;20129;-88
2022/09/05 23:32:27;;;;;;;12.80;3.38;;;;;;;-147.53;100.00;57128.34;10221293;28;20037;-87
2022/09/05 23:37:28;;;;;;;6.63;3.00;;;;;;;-147.53;100.00;57128.34;10242690;28;20409;-87
2022/09/05 23:42:30;;;;;;;6.70;3.30;;;;;;;-147.53;100.00;57128.34;10226058;28;20433;-87
2022/09/05 23:47:34;;;;;;;6.35;3.25;;;;;;;-147.53;100.00;57128.34;10242717;28;20038;-87
2022/09/05 23:52:39;;;;;;;5.72;3.00;;;;;;;-147.53;100.00;57128.34;10244599;28;20035;-87
2022/09/05 23:57:41;;;;;;;6.47;3.28;;;;;;;-147.53;100.00;57128.34;10236313;28;20114;-88
